Time;durP1;ratioP1;P1;durP2;ratioP2;P2;SDS_P1;SDS_P2;PMS_P1;PMS_P2;Temp;Humidity;BMP_temperature;BMP_pressure;BME280_temperature;BME280_humidity;BME280_pressure;Samples;Min_cycle;Max_cycle;Signal;HPM_P1;HPM_P2
2023/01/12 00:01:25;;;;;;;1.80;0.50;;;;;;;13.30;89.91;101664.41;5014977;28;20050;-57
2023/01/12 00:03:52;;;;;;;1.15;0.40;;;;;;;13.32;89.84;101673.91;5014802;28;20495;-56
2023/01/12 00:06:19;;;;;;;2.72;0.52;;;;;;;13.39;89.64;101661.31;5018800;28;20073;-57
2023/01/12 00:08:47;;;;;;;1.90;0.35;;;;;;;13.37;89.91;101660.69;5015392;28;20030;-57
2023/01/12 00:11:14;;;;;;;1.33;0.50;;;;;;;13.43;89.36;101659.84;5013043;28;20072;-56
2023/01/12 00:13:40;;;;;;;2.72;0.60;;;;;;;13.48;89.14;101665.44;5015133;28;20021;-57
2023/01/12 00:18:57;;;;;;;1.13;0.35;;;;;;;13.47;89.11;101663.78;5015429;28;20057;-56
2023/01/12 00:21:23;;;;;;;2.13;0.40;;;;;;;13.47;89.43;101655.72;5015336;28;20030;-56
2023/01/12 00:23:49;;;;;;;4.28;0.73;;;;;;;13.47;89.52;101644.16;5014986;28;20042;-56
2023/01/12 00:26:15;;;;;;;0.88;0.70;;;;;;;13.44;90.01;101634.63;5014664;28;20034;-57
2023/01/12 00:28:42;;;;;;;1.85;0.60;;;;;;;13.38;90.00;101634.59;5017091;28;20029;-56
2023/01/12 00:31:10;;;;;;;1.42;0.55;;;;;;;13.46;89.55;101620.97;5017951;28;20034;-56
2023/01/12 00:33:39;;;;;;;1.13;0.50;;;;;;;13.32;90.34;101627.38;5034440;28;20400;-56
2023/01/12 00:36:11;;;;;;;0.68;0.50;;;;;;;13.20;91.25;101619.03;5024484;28;20072;-56
2023/01/12 00:38:38;;;;;;;0.88;0.55;;;;;;;13.20;90.90;101610.97;5014998;28;20428;-56
2023/01/12 00:41:10;;;;;;;1.05;0.55;;;;;;;13.32;90.59;101609.38;5014643;28;20100;-56
2023/01/12 00:46:31;;;;;;;1.38;0.60;;;;;;;13.10;91.66;101610.53;5014864;28;20511;-56
2023/01/12 00:48:57;;;;;;;0.95;0.50;;;;;;;13.08;92.12;101613.44;5020066;28;20533;-57
2023/01/12 00:51:24;;;;;;;2.30;0.93;;;;;;;13.18;91.67;101624.63;5025174;28;20041;-57
2023/01/12 00:53:50;;;;;;;0.52;0.47;;;;;;;13.17;91.60;101624.84;5013133;28;20437;-57
2023/01/12 00:56:17;;;;;;;2.60;0.75;;;;;;;13.10;92.10;101621.28;5013735;28;20125;-57
2023/01/12 00:58:43;;;;;;;2.95;0.52;;;;;;;13.24;91.38;101622.19;5014258;28;20053;-57
2023/01/12 01:01:09;;;;;;;1.35;0.60;;;;;;;13.16;92.00;101612.44;5013276;28;20034;-57
2023/01/12 01:03:35;;;;;;;2.42;0.90;;;;;;;13.24;91.25;101606.91;5013505;28;20033;-54
2023/01/12 01:06:06;;;;;;;0.93;0.50;;;;;;;13.19;91.41;101602.09;5014322;28;20030;-52
2023/01/12 01:08:36;;;;;;;1.45;0.65;;;;;;;13.13;91.80;101592.16;5014113;28;20053;-54
2023/01/12 01:11:05;;;;;;;1.77;0.55;;;;;;;13.19;91.33;101585.97;5012748;28;20052;-55
2023/01/12 01:13:32;;;;;;;0.80;0.60;;;;;;;13.15;91.79;101592.78;5027052;28;20041;-55
2023/01/12 01:15:59;;;;;;;5.60;0.82;;;;;;;13.10;91.96;101580.97;5033454;28;20044;-55
2023/01/12 01:18:26;;;;;;;1.20;0.93;;;;;;;13.13;91.74;101580.59;5032762;28;20442;-57
2023/01/12 01:20:53;;;;;;;0.75;0.52;;;;;;;13.07;92.58;101578.72;5022147;28;20090;-56
2023/01/12 01:23:21;;;;;;;2.67;0.82;;;;;;;12.91;93.11;101564.63;5013654;28;20080;-56
2023/01/12 01:25:48;;;;;;;1.92;0.40;;;;;;;13.06;92.39;101544.81;5023553;28;20363;-56
2023/01/12 01:28:15;;;;;;;1.20;0.40;;;;;;;13.09;91.45;101553.28;5017598;28;20022;-56
2023/01/12 01:30:41;;;;;;;1.88;0.70;;;;;;;13.21;90.72;101569.66;5013791;28;20065;-56
2023/01/12 01:33:07;;;;;;;1.92;0.50;;;;;;;13.09;91.16;101572.09;5014075;28;20049;-56
2023/01/12 01:35:35;;;;;;;3.08;0.73;;;;;;;13.14;91.05;101587.59;5024760;28;20029;-54
2023/01/12 01:38:02;;;;;;;0.60;0.35;;;;;;;13.15;91.23;101591.94;5015274;28;20029;-52
2023/01/12 01:40:29;;;;;;;0.68;0.50;;;;;;;13.19;91.03;101598.56;5015005;28;20030;-54
2023/01/12 01:42:55;;;;;;;1.08;0.50;;;;;;;13.11;92.06;101607.69;5017471;28;20030;-52
2023/01/12 01:45:22;;;;;;;1.02;0.65;;;;;;;13.15;91.44;101605.38;5022601;28;20042;-57
2023/01/12 01:48:01;;;;;;;1.00;0.50;;;;;;;13.06;91.76;101603.94;5021056;28;20104;-52
2023/01/12 01:50:40;;;;;;;0.82;0.40;;;;;;;13.15;91.84;101608.91;5033175;28;20036;-60
2023/01/12 01:53:11;;;;;;;2.67;0.80;;;;;;;13.29;91.39;101608.97;5028729;28;20064;-60
2023/01/12 01:55:52;;;;;;;2.75;0.50;;;;;;;13.35;90.78;101622.41;5022123;28;20075;-60
2023/01/12 01:58:30;;;;;;;1.83;0.40;;;;;;;13.22;91.39;101619.72;5015849;28;20436;-61
2023/01/12 02:00:57;;;;;;;1.05;0.65;;;;;;;13.36;90.78;101621.38;5027237;28;20021;-56
2023/01/12 02:03:25;;;;;;;1.08;0.55;;;;;;;13.23;91.29;101613.31;5022547;28;20033;-54
2023/01/12 02:05:52;;;;;;;1.73;0.50;;;;;;;13.30;91.00;101611.44;5019895;28;20026;-53
2023/01/12 02:08:34;;;;;;;0.60;0.50;;;;;;;13.19;91.81;101626.28;5013599;28;20033;-53
2023/01/12 02:11:02;;;;;;;1.73;0.50;;;;;;;13.28;92.07;101628.81;5022262;28;20040;-54
2023/01/12 02:16:24;;;;;;;1.60;0.45;;;;;;;13.29;92.02;101644.75;5033227;28;20068;-53
2023/01/12 02:18:59;;;;;;;2.13;0.77;;;;;;;13.22;91.99;101635.84;5012956;28;20065;-55
2023/01/12 02:21:55;;;;;;;1.88;0.60;;;;;;;13.20;92.31;101649.44;5012666;28;20451;-57
2023/01/12 02:25:01;;;;;;;1.27;0.68;;;;;;;13.12;93.42;101662.25;5012493;28;20065;-57
2023/01/12 02:27:46;;;;;;;1.92;0.68;;;;;;;13.12;93.17;101670.31;5012202;28;20037;-69
2023/01/12 02:30:52;;;;;;;1.83;0.77;;;;;;;13.19;93.03;101679.22;5012692;28;20099;-65
2023/01/12 02:33:42;;;;;;;1.30;0.68;;;;;;;13.10;93.40;101675.06;5027366;28;20033;-59
2023/01/12 02:36:18;;;;;;;2.33;0.80;;;;;;;13.06;93.62;101674.66;5030330;28;20026;-59
2023/01/12 02:39:10;;;;;;;1.17;0.63;;;;;;;13.07;94.02;101675.47;5022709;28;20029;-59
2023/01/12 02:44:46;;;;;;;2.30;0.70;;;;;;;13.12;93.67;101694.50;5011836;28;20041;-59
2023/01/12 02:47:22;;;;;;;2.88;0.60;;;;;;;13.15;93.39;101686.03;5013010;28;20034;-59
2023/01/12 02:49:53;;;;;;;0.73;0.55;;;;;;;13.27;93.61;101703.28;5015107;28;20113;-59
2023/01/12 02:52:23;;;;;;;1.15;0.80;;;;;;;13.25;93.63;101689.19;5012531;28;20059;-59
2023/01/12 02:54:51;;;;;;;2.90;0.70;;;;;;;13.32;93.24;101695.41;5011878;28;20026;-59
2023/01/12 02:57:19;;;;;;;1.80;0.80;;;;;;;13.25;93.54;101693.75;5012497;28;20029;-60
2023/01/12 02:59:49;;;;;;;1.27;0.70;;;;;;;13.23;94.07;101693.97;5020633;28;20132;-59
2023/01/12 03:02:21;;;;;;;1.45;0.70;;;;;;;13.25;94.42;101701.81;5026187;28;20028;-59
2023/01/12 03:04:48;;;;;;;1.38;0.70;;;;;;;13.05;95.65;101709.78;5032374;28;20031;-59
2023/01/12 03:07:14;;;;;;;1.98;0.80;;;;;;;13.12;95.33;101710.63;5021481;28;20026;-59
2023/01/12 03:09:49;;;;;;;1.60;0.65;;;;;;;13.18;95.08;101721.41;5014907;28;20037;-59
2023/01/12 03:12:32;;;;;;;1.73;0.95;;;;;;;13.21;95.01;101722.88;5011982;28;20033;-59
2023/01/12 03:15:03;;;;;;;0.75;0.60;;;;;;;13.27;94.18;101719.41;5011506;28;20079;-59
2023/01/12 03:17:53;;;;;;;1.90;1.10;;;;;;;13.36;93.38;101728.94;5012849;28;20541;-59
2023/01/12 03:21:01;;;;;;;1.48;0.77;;;;;;;13.40;92.97;101734.75;5030313;28;20033;-59
2023/01/12 03:23:39;;;;;;;2.78;1.00;;;;;;;13.44;91.93;101747.59;5020792;28;20439;-59
2023/01/12 03:26:09;;;;;;;2.72;0.90;;;;;;;13.41;91.81;101749.84;5031189;28;20036;-59
2023/01/12 03:28:42;;;;;;;1.30;0.70;;;;;;;13.43;91.52;101748.59;5012498;28;20029;-59
2023/01/12 03:31:11;;;;;;;2.00;0.75;;;;;;;13.55;90.42;101754.25;5011967;28;20100;-59
2023/01/12 03:33:42;;;;;;;1.45;0.73;;;;;;;13.65;89.95;101753.81;5011788;28;20522;-59
2023/01/12 03:36:27;;;;;;;2.78;1.08;;;;;;;13.62;89.21;101757.78;5012205;28;20025;-59
2023/01/12 03:39:08;;;;;;;8.17;1.17;;;;;;;13.57;89.44;101768.31;5011873;28;20037;-58
2023/01/12 03:41:39;;;;;;;1.52;0.60;;;;;;;13.43;90.27;101772.81;5011440;28;20483;-59
2023/01/12 03:44:11;;;;;;;2.13;0.70;;;;;;;13.57;89.37;101773.69;5011464;28;20030;-59
2023/01/12 03:46:47;;;;;;;6.97;0.80;;;;;;;13.55;89.61;101780.28;5011732;28;20061;-60
2023/01/12 03:49:24;;;;;;;2.05;0.73;;;;;;;13.74;88.80;101782.22;5011555;28;20036;-60
2023/01/12 03:51:54;;;;;;;1.33;0.60;;;;;;;13.60;88.92;101777.81;5012078;28;20026;-60
2023/01/12 03:54:22;;;;;;;1.38;0.68;;;;;;;13.62;88.27;101778.47;5011407;28;20029;-60
2023/01/12 03:56:51;;;;;;;1.45;0.80;;;;;;;13.60;88.03;101767.91;5029570;28;20029;-59
2023/01/12 03:59:18;;;;;;;1.60;0.75;;;;;;;13.55;88.61;101774.91;5031151;28;20021;-59
2023/01/12 04:01:45;;;;;;;2.15;0.90;;;;;;;13.70;87.98;101776.41;5031209;28;20040;-59
2023/01/12 04:04:11;;;;;;;1.23;0.50;;;;;;;13.78;87.04;101788.03;5019436;28;20831;-59
2023/01/12 04:06:37;;;;;;;1.20;0.60;;;;;;;13.76;87.41;101785.50;5011569;28;20080;-59
2023/01/12 04:09:03;;;;;;;1.85;0.80;;;;;;;13.82;86.72;101782.00;5012503;28;20065;-59
2023/01/12 04:14:14;;;;;;;1.55;0.70;;;;;;;13.87;86.97;101790.28;5011378;28;20072;-59
2023/01/12 04:16:40;;;;;;;3.60;0.82;;;;;;;13.92;86.19;101785.13;5011336;28;20117;-59
2023/01/12 04:19:07;;;;;;;3.42;1.08;;;;;;;13.96;85.44;101791.78;5011362;28;20121;-59
2023/01/12 04:24:17;;;;;;;2.13;0.85;;;;;;;13.96;85.76;101802.53;5010920;28;20108;-59
2023/01/12 04:26:45;;;;;;;5.72;1.85;;;;;;;13.96;85.43;101807.09;5011705;28;20360;-60
2023/01/12 04:29:11;;;;;;;3.42;1.00;;;;;;;13.97;85.17;101806.06;5011431;28;20021;-59
2023/01/12 04:31:38;;;;;;;3.78;1.40;;;;;;;13.98;85.14;101797.75;5011455;28;20149;-60
2023/01/12 04:34:05;;;;;;;2.83;1.13;;;;;;;14.02;84.86;101808.97;5024133;28;20404;-60
2023/01/12 04:36:31;;;;;;;2.97;1.20;;;;;;;14.11;84.25;101815.81;5027735;28;20109;-60
2023/01/12 04:38:57;;;;;;;5.10;1.45;;;;;;;14.05;84.09;101813.09;5034361;28;20068;-60
2023/01/12 04:41:23;;;;;;;4.53;0.77;;;;;;;14.08;84.04;101820.78;5024900;28;20553;-59
2023/01/12 04:43:49;;;;;;;4.95;1.33;;;;;;;13.99;84.78;101803.97;5013627;28;20104;-59
2023/01/12 04:46:16;;;;;;;3.22;1.33;;;;;;;14.06;84.87;101809.38;5027543;28;20029;-60
2023/01/12 04:48:43;;;;;;;4.38;1.40;;;;;;;13.90;84.78;101811.44;5026277;28;20033;-59
2023/01/12 04:51:09;;;;;;;2.90;1.25;;;;;;;13.94;84.74;101806.47;5018695;28;20026;-60
2023/01/12 04:53:35;;;;;;;6.28;1.70;;;;;;;14.05;84.41;101810.41;5016683;28;20025;-58
2023/01/12 04:56:06;;;;;;;5.28;1.85;;;;;;;13.99;84.06;101812.03;5031475;28;20476;-59
2023/01/12 04:58:33;;;;;;;4.93;1.60;;;;;;;13.97;84.21;101808.75;5025526;28;20519;-59
2023/01/12 05:01:12;;;;;;;5.82;1.83;;;;;;;13.96;83.88;101807.91;5016351;28;20029;-59
2023/01/12 05:03:38;;;;;;;8.85;1.90;;;;;;;13.94;84.34;101801.94;5017647;28;20029;-59
2023/01/12 05:06:05;;;;;;;7.50;2.30;;;;;;;14.03;83.96;101801.72;5033569;28;20032;-60
2023/01/12 05:11:16;;;;;;;6.22;1.92;;;;;;;13.97;83.52;101800.66;5034032;28;20571;-59
2023/01/12 05:13:43;;;;;;;14.00;2.53;;;;;;;13.89;83.32;101790.94;5034018;28;20037;-59
2023/01/12 05:16:14;;;;;;;8.10;2.10;;;;;;;13.85;83.96;101787.00;5029891;28;20375;-59
2023/01/12 05:18:41;;;;;;;7.75;2.20;;;;;;;13.97;83.31;101774.56;5033756;28;20030;-60
2023/01/12 05:21:08;;;;;;;12.85;2.20;;;;;;;13.85;83.60;101776.22;5034010;28;20080;-60
2023/01/12 05:23:34;;;;;;;8.50;2.80;;;;;;;13.84;83.18;101771.06;5033415;28;20049;-59
2023/01/12 05:26:01;;;;;;;7.18;2.20;;;;;;;13.85;83.36;101764.63;5033651;28;20033;-59
2023/01/12 05:28:28;;;;;;;8.57;2.53;;;;;;;13.90;82.75;101763.00;5033821;28;20029;-59
2023/01/12 05:31:00;;;;;;;9.82;2.45;;;;;;;13.84;82.96;101771.88;5033456;28;20025;-59
2023/01/12 05:33:26;;;;;;;8.93;2.30;;;;;;;13.90;82.67;101772.94;5029689;28;20048;-59
2023/01/12 05:35:53;;;;;;;10.20;2.78;;;;;;;13.89;82.40;101773.97;5013465;28;20033;-59
2023/01/12 05:38:19;;;;;;;8.57;2.90;;;;;;;13.86;82.77;101774.38;5013782;28;20040;-59
2023/01/12 05:40:45;;;;;;;19.67;3.38;;;;;;;13.80;82.38;101789.47;5013509;28;20066;-59
2023/01/12 05:46:03;;;;;;;9.55;2.95;;;;;;;13.91;82.35;101796.94;5013054;28;20103;-59
2023/01/12 05:48:31;;;;;;;7.78;2.72;;;;;;;13.91;82.07;101810.38;5013955;28;20025;-59
2023/01/12 05:51:02;;;;;;;12.45;2.63;;;;;;;13.90;81.41;101811.44;5014416;28;20032;-59
2023/01/12 05:53:28;;;;;;;11.15;2.50;;;;;;;13.83;81.55;101810.59;5026064;28;20028;-59
2023/01/12 05:55:55;;;;;;;11.18;2.72;;;;;;;13.93;81.15;101810.19;5032828;28;20761;-59
2023/01/12 05:58:22;;;;;;;10.50;2.03;;;;;;;14.02;80.73;101825.13;5024292;28;20030;-59
2023/01/12 06:00:48;;;;;;;8.60;2.20;;;;;;;14.02;81.10;101829.66;5016926;28;20479;-59
2023/01/12 06:03:15;;;;;;;15.07;3.10;;;;;;;13.92;80.87;101832.75;5028573;28;20087;-59
2023/01/12 06:05:41;;;;;;;14.80;2.80;;;;;;;13.91;81.02;101837.31;5016211;28;20045;-59
2023/01/12 06:08:07;;;;;;;12.45;2.95;;;;;;;14.03;80.83;101842.91;5012771;28;20037;-59
2023/01/12 06:10:35;;;;;;;9.15;2.05;;;;;;;14.12;80.04;101846.25;5021387;28;20025;-59
2023/01/12 06:15:47;;;;;;;;;;;;;;;14.07;80.36;101854.13;5019210;28;20120;-59
2023/01/12 06:18:13;;;;;;;9.63;2.88;;;;;;;14.05;80.17;101854.34;5012949;28;19968;-59
2023/01/12 06:20:39;;;;;;;6.68;2.47;;;;;;;14.04;80.21;101858.03;5012957;28;20037;-59
2023/01/12 06:23:06;;;;;;;8.75;3.08;;;;;;;14.03;80.04;101851.00;5012979;28;20046;-59
2023/01/12 06:25:32;;;;;;;9.60;3.15;;;;;;;14.02;80.08;101862.81;5013284;28;20117;-59
2023/01/12 06:27:58;;;;;;;7.13;2.20;;;;;;;13.95;80.39;101860.09;5027010;28;20369;-59
2023/01/12 06:30:24;;;;;;;11.63;2.47;;;;;;;14.00;80.42;101857.63;5032714;28;20033;-59
2023/01/12 06:32:51;;;;;;;11.23;2.33;;;;;;;13.98;79.79;101870.44;5032447;28;20026;-59
2023/01/12 06:35:17;;;;;;;6.63;1.65;;;;;;;14.12;79.72;101867.78;5032099;28;20220;-59
2023/01/12 06:37:43;;;;;;;8.30;2.40;;;;;;;14.04;79.63;101876.03;5032261;28;20828;-59
2023/01/12 06:40:10;;;;;;;9.68;2.30;;;;;;;14.03;79.87;101879.78;5032348;28;20045;-59
2023/01/12 06:42:40;;;;;;;8.82;2.67;;;;;;;13.98;79.94;101880.38;5018322;28;20494;-59
2023/01/12 06:45:07;;;;;;;5.88;2.00;;;;;;;13.96;79.96;101891.34;5012457;28;20030;-59
2023/01/12 06:47:42;;;;;;;8.10;2.20;;;;;;;14.04;79.57;101895.72;5012372;28;20057;-60
2023/01/12 06:50:09;;;;;;;11.75;2.38;;;;;;;14.05;79.19;101899.25;5012582;28;20026;-59
2023/01/12 06:52:36;;;;;;;11.35;2.85;;;;;;;14.04;79.11;101902.97;5012249;28;20129;-59
2023/01/12 06:55:02;;;;;;;10.50;2.03;;;;;;;13.97;78.96;101900.25;5011957;28;20053;-59
2023/01/12 06:57:28;;;;;;;13.45;2.63;;;;;;;13.96;79.47;101906.69;5011863;28;20030;-59
2023/01/12 06:59:55;;;;;;;11.18;2.22;;;;;;;14.02;78.71;101905.88;5013070;28;20037;-59
2023/01/12 07:02:21;;;;;;;9.68;2.58;;;;;;;13.98;78.86;101908.13;5011802;28;20479;-59
2023/01/12 07:04:48;;;;;;;10.00;2.15;;;;;;;14.11;78.10;101903.84;5028704;28;20029;-59
2023/01/12 07:07:14;;;;;;;10.77;2.67;;;;;;;14.09;78.33;101905.88;5031693;28;20483;-59
2023/01/12 07:09:41;;;;;;;11.85;2.88;;;;;;;14.02;79.13;101899.66;5029311;28;20120;-59
2023/01/12 07:12:07;;;;;;;13.38;3.00;;;;;;;14.03;78.37;101890.53;5011668;28;20432;-59
2023/01/12 07:14:33;;;;;;;8.23;2.35;;;;;;;13.97;78.72;101890.31;5027461;28;20053;-59
2023/01/12 07:17:00;;;;;;;10.20;2.63;;;;;;;14.00;78.19;101887.25;5024103;28;20022;-59
2023/01/12 07:19:26;;;;;;;12.50;2.20;;;;;;;14.02;77.99;101894.28;5014987;28;20052;-59
2023/01/12 07:21:52;;;;;;;11.32;2.20;;;;;;;14.02;78.00;101896.97;5011718;28;20022;-59
2023/01/12 07:24:18;;;;;;;16.27;2.78;;;;;;;14.11;77.53;101903.84;5015105;28;20050;-59
2023/01/12 07:26:48;;;;;;;9.98;2.85;;;;;;;14.04;77.91;101909.19;5014446;28;20168;-59
2023/01/12 07:29:15;;;;;;;8.68;2.22;;;;;;;14.17;77.74;101920.00;5028927;28;20032;-59
2023/01/12 07:31:43;;;;;;;7.55;2.38;;;;;;;14.10;77.13;101934.47;5027113;28;20627;-60
2023/01/12 07:34:09;;;;;;;16.40;2.60;;;;;;;13.98;78.07;101936.91;5029826;28;20030;-60
2023/01/12 07:36:36;;;;;;;11.13;2.28;;;;;;;14.02;77.72;101948.13;5031494;28;20026;-60
2023/01/12 07:39:02;;;;;;;10.27;1.92;;;;;;;14.02;77.69;101953.50;5031202;28;20025;-59
2023/01/12 07:44:13;;;;;;;13.30;2.25;;;;;;;14.10;77.35;101962.25;5024137;28;20112;-59
2023/01/12 07:46:39;;;;;;;11.63;2.47;;;;;;;14.07;77.78;101954.56;5011566;28;20125;-60
2023/01/12 07:49:06;;;;;;;8.18;2.10;;;;;;;14.05;77.71;101959.31;5012481;28;20022;-60
2023/01/12 07:51:32;;;;;;;6.35;1.83;;;;;;;14.05;77.58;101953.94;5011608;28;20038;-60
2023/01/12 07:53:58;;;;;;;6.97;2.15;;;;;;;14.12;77.01;101945.88;5011025;28;20045;-60
2023/01/12 07:56:24;;;;;;;13.27;1.98;;;;;;;14.03;77.78;101955.16;5011502;28;20492;-60
2023/01/12 07:58:51;;;;;;;9.88;2.33;;;;;;;14.11;77.47;101957.69;5011450;28;20029;-59
2023/01/12 08:01:17;;;;;;;11.05;2.42;;;;;;;14.14;77.33;101960.78;5011582;28;20183;-60
2023/01/12 08:03:43;;;;;;;10.75;2.30;;;;;;;14.19;76.88;101960.19;5011324;28;20037;-60
2023/01/12 08:06:09;;;;;;;8.75;2.63;;;;;;;14.17;76.52;101949.63;5012305;28;20033;-60
2023/01/12 08:08:36;;;;;;;11.25;1.88;;;;;;;14.23;76.53;101959.56;5011404;28;20029;-60
2023/01/12 08:11:05;;;;;;;9.50;2.25;;;;;;;14.26;76.18;101959.16;5029952;28;20026;-60
2023/01/12 08:13:32;;;;;;;9.25;2.00;;;;;;;14.20;76.66;101962.66;5032448;28;20036;-60
2023/01/12 08:16:05;;;;;;;12.23;2.78;;;;;;;14.16;76.37;101966.00;5032459;28;20022;-60
2023/01/12 08:18:42;;;;;;;10.60;2.92;;;;;;;14.21;76.48;101960.78;5032286;28;20388;-59
2023/01/12 08:21:13;;;;;;;10.07;2.10;;;;;;;14.21;76.67;101958.09;5021010;28;20033;-59
2023/01/12 08:23:48;;;;;;;14.73;3.05;;;;;;;14.27;75.76;101951.94;5013878;28;20038;-59
2023/01/12 08:26:23;;;;;;;10.32;2.13;;;;;;;14.11;76.73;101947.75;5015379;28;20130;-59
2023/01/12 08:29:02;;;;;;;7.07;2.22;;;;;;;14.12;76.79;101943.19;5014388;28;20022;-59
2023/01/12 08:31:30;;;;;;;9.80;2.28;;;;;;;14.19;76.13;101934.09;5019025;28;20036;-59
2023/01/12 08:33:57;;;;;;;9.25;2.70;;;;;;;14.14;76.30;101933.03;5031993;28;20091;-59
2023/01/12 08:36:24;;;;;;;17.13;2.75;;;;;;;14.19;76.39;101931.38;5027619;28;20033;-59
2023/01/12 08:38:51;;;;;;;15.75;2.83;;;;;;;14.28;76.50;101932.03;5033493;28;20033;-59
2023/01/12 08:41:32;;;;;;;8.98;2.58;;;;;;;14.15;76.03;101940.06;5032382;28;20029;-59
2023/01/12 08:44:10;;;;;;;10.88;3.00;;;;;;;14.21;75.94;101933.88;5032109;28;20190;-59
2023/01/12 08:46:38;;;;;;;12.48;3.28;;;;;;;14.17;75.72;101930.78;5032168;28;20100;-59
2023/01/12 08:49:10;;;;;;;10.10;2.28;;;;;;;14.29;75.93;101933.69;5027976;28;20030;-58
2023/01/12 08:51:38;;;;;;;9.75;2.78;;;;;;;14.23;75.92;101931.81;5014135;28;20499;-59
2023/01/12 08:54:05;;;;;;;15.20;3.20;;;;;;;14.27;75.61;101930.38;5013876;28;20046;-59
2023/01/12 08:56:32;;;;;;;9.20;2.70;;;;;;;14.16;76.17;101929.13;5019037;28;20048;-59
2023/01/12 08:58:59;;;;;;;14.93;3.28;;;;;;;14.14;76.67;101930.34;5031986;28;20030;-59
2023/01/12 09:01:26;;;;;;;9.68;2.50;;;;;;;14.13;76.62;101931.38;5029413;28;20029;-59
2023/01/12 09:03:52;;;;;;;8.55;2.67;;;;;;;14.19;76.25;101933.25;5018708;28;20440;-59
2023/01/12 09:06:25;;;;;;;8.20;2.60;;;;;;;14.26;76.42;101948.38;5019855;28;20057;-59
2023/01/12 09:08:59;;;;;;;10.38;2.58;;;;;;;14.12;75.70;101952.09;5015526;28;20557;-59
2023/01/12 09:11:28;;;;;;;8.20;2.97;;;;;;;14.12;76.08;101953.94;5030880;28;20026;-59
2023/01/12 09:13:57;;;;;;;10.48;2.95;;;;;;;14.17;76.11;101946.09;5023259;28;20052;-59
2023/01/12 09:16:25;;;;;;;10.00;2.35;;;;;;;14.18;75.98;101953.97;5014460;28;20041;-59
2023/01/12 09:18:52;;;;;;;18.25;3.35;;;;;;;14.19;75.95;101949.41;5030840;28;20027;-59
2023/01/12 09:21:21;;;;;;;13.20;2.95;;;;;;;14.16;75.75;101956.03;5032796;28;20037;-59
2023/01/12 09:23:48;;;;;;;14.48;3.17;;;;;;;14.02;76.45;101953.50;5033318;28;20400;-59
2023/01/12 09:26:17;;;;;;;15.57;3.13;;;;;;;14.04;76.18;101937.97;5033595;28;20384;-59
2023/01/12 09:28:44;;;;;;;9.40;2.35;;;;;;;14.07;76.81;101938.41;5033632;28;20052;-59
2023/01/12 09:31:16;;;;;;;8.88;2.28;;;;;;;14.24;75.58;101949.63;5017591;28;20034;-59
2023/01/12 09:33:43;;;;;;;12.30;2.97;;;;;;;14.23;75.56;101956.06;5033518;28;20032;-59
2023/01/12 09:36:14;;;;;;;10.82;2.88;;;;;;;14.25;75.18;101953.97;5033617;28;20028;-59
2023/01/12 09:38:43;;;;;;;18.58;3.53;;;;;;;14.35;74.89;101962.50;5033953;28;20052;-59
2023/01/12 09:47:56;;;;;;;12.18;3.08;;;;;;;14.23;75.00;101972.22;5033694;28;20156;-59
2023/01/12 09:50:27;;;;;;;12.25;3.88;;;;;;;14.18;74.82;101974.69;5008912;28;20060;-59
2023/01/12 09:53:11;;;;;;;19.52;3.33;;;;;;;14.15;74.83;101956.22;5013649;28;20486;-59
2023/01/12 09:55:46;;;;;;;18.17;3.72;;;;;;;14.34;74.54;101960.84;5013196;28;20480;-59
2023/01/12 09:58:51;;;;;;;14.85;3.45;;;;;;;14.39;74.49;101973.72;5013533;28;20033;-59
2023/01/12 10:01:20;;;;;;;16.95;2.97;;;;;;;14.37;74.19;101973.91;4983090;28;20037;-59
2023/01/12 10:03:47;;;;;;;18.15;3.70;;;;;;;14.34;74.23;101966.25;5012972;28;20037;-59
2023/01/12 10:06:18;;;;;;;16.15;3.13;;;;;;;14.41;73.48;101966.25;5020066;28;20021;-59
2023/01/12 10:08:55;;;;;;;17.05;3.25;;;;;;;14.30;73.88;101969.53;5032924;28;20047;-59
2023/01/12 10:11:43;;;;;;;11.70;3.25;;;;;;;14.38;73.90;101974.72;5032848;28;20029;-59
2023/01/12 10:14:33;;;;;;;15.63;3.33;;;;;;;14.33;73.72;101969.16;5032354;28;20480;-59
2023/01/12 10:17:03;;;;;;;13.52;3.03;;;;;;;14.30;74.28;101981.13;5032996;28;20113;-59
2023/01/12 10:19:54;;;;;;;14.38;3.45;;;;;;;14.37;73.97;101981.97;5032691;28;20037;-59
2023/01/12 10:22:36;;;;;;;12.63;3.08;;;;;;;14.35;73.94;101981.34;5029327;28;20034;-59
2023/01/12 10:25:20;;;;;;;20.20;3.33;;;;;;;14.28;74.10;101985.91;5012685;28;20041;-59
2023/01/12 10:27:50;;;;;;;11.45;2.95;;;;;;;14.30;73.19;101989.22;5013003;28;20109;-59
2023/01/12 10:30:18;;;;;;;22.45;4.07;;;;;;;14.24;74.03;101990.03;5013126;28;20523;-59
2023/01/12 10:32:44;;;;;;;19.65;3.33;;;;;;;14.19;74.14;101993.31;5012594;28;20088;-59
2023/01/12 10:35:19;;;;;;;12.48;3.50;;;;;;;14.25;73.89;101983.59;5012356;28;20057;-59
2023/01/12 10:37:53;;;;;;;12.77;3.30;;;;;;;14.27;73.74;101978.88;5012640;28;20049;-59
2023/01/12 10:40:31;;;;;;;16.25;4.15;;;;;;;14.32;73.45;101973.66;5013805;28;20037;-59
2023/01/12 10:43:19;;;;;;;13.73;3.50;;;;;;;14.31;73.80;101969.31;5012376;28;20480;-59
2023/01/12 10:46:01;;;;;;;14.07;3.17;;;;;;;14.18;73.75;101969.28;5012411;28;20083;-59
2023/01/12 10:48:27;;;;;;;15.45;3.75;;;;;;;14.26;73.80;101971.78;5012321;28;20053;-59
2023/01/12 10:50:59;;;;;;;15.88;3.72;;;;;;;14.32;73.46;101964.75;5012090;28;20038;-59
2023/01/12 10:53:48;;;;;;;10.35;2.90;;;;;;;14.28;73.52;101985.91;5012353;28;20455;-59
2023/01/12 10:56:34;;;;;;;22.40;4.35;;;;;;;14.26;73.42;101985.25;5012987;28;20033;-59
2023/01/12 10:59:20;;;;;;;16.65;3.58;;;;;;;14.31;73.76;101976.56;5012144;28;20030;-59
2023/01/12 11:02:05;;;;;;;15.05;3.58;;;;;;;14.23;73.52;101977.59;5011601;28;20392;-58
2023/01/12 11:04:47;;;;;;;11.33;3.97;;;;;;;14.21;73.41;101974.25;5011938;28;20388;-59
2023/01/12 11:07:27;;;;;;;17.45;3.50;;;;;;;14.25;73.70;101976.34;5026205;28;20051;-59
2023/01/12 11:09:57;;;;;;;14.65;3.25;;;;;;;14.23;73.24;101973.03;5031779;28;20026;-60
2023/01/12 11:12:39;;;;;;;14.50;3.42;;;;;;;14.48;72.61;101962.56;5031625;28;20040;-60
2023/01/12 11:15:08;;;;;;;20.67;3.85;;;;;;;14.43;72.86;101962.31;5013927;28;20113;-59
2023/01/12 11:17:47;;;;;;;16.05;3.42;;;;;;;14.38;72.77;101964.81;5024945;28;20025;-59
2023/01/12 11:20:24;;;;;;;15.13;3.47;;;;;;;14.35;72.90;101967.91;5028768;28;20046;-59
2023/01/12 11:22:54;;;;;;;23.10;3.95;;;;;;;14.31;73.38;101968.50;5024230;28;20029;-59
2023/01/12 11:25:31;;;;;;;12.52;3.53;;;;;;;14.30;72.70;101964.97;5014550;28;20459;-59
2023/01/12 11:28:05;;;;;;;19.17;4.20;;;;;;;14.24;73.43;101957.72;5026482;28;20048;-60
2023/01/12 11:30:52;;;;;;;12.25;3.17;;;;;;;14.18;73.34;101953.13;5025828;28;20163;-59
2023/01/12 11:33:21;;;;;;;13.25;3.25;;;;;;;14.24;73.54;101937.00;5022939;28;20040;-59
2023/01/12 11:35:58;;;;;;;16.05;3.80;;;;;;;14.18;73.16;101937.81;5031287;28;20091;-59
2023/01/12 11:38:34;;;;;;;16.08;3.70;;;;;;;14.37;72.40;101930.81;5011876;28;20065;-59
2023/01/12 11:41:02;;;;;;;17.40;3.25;;;;;;;14.30;72.60;101929.97;5011848;28;20034;-59
2023/01/12 11:43:48;;;;;;;14.77;4.90;;;;;;;14.17;72.62;101941.53;5011543;28;20029;-59
2023/01/12 11:46:20;;;;;;;;;;;;;;;14.25;72.54;101922.50;5012223;28;20030;-59
2023/01/12 11:49:17;;;;;;;19.77;3.63;;;;;;;14.15;72.38;101910.44;5017929;28;19979;-59
2023/01/12 11:51:46;;;;;;;16.50;3.50;;;;;;;14.15;72.84;101915.84;5031238;28;20033;-59
2023/01/12 11:54:17;;;;;;;13.65;2.92;;;;;;;14.21;71.94;101909.63;5030990;28;20025;-59
2023/01/12 11:57:21;;;;;;;13.50;3.20;;;;;;;14.30;71.91;101908.41;5031224;28;20433;-59
2023/01/12 12:00:23;;;;;;;14.10;2.97;;;;;;;14.24;71.40;101893.09;5008015;28;20049;-59
2023/01/12 12:03:03;;;;;;;15.73;3.35;;;;;;;14.11;71.97;101891.19;5014637;28;20522;-59
2023/01/12 12:05:50;;;;;;;15.32;3.50;;;;;;;14.21;71.93;101888.09;5012719;28;20025;-59
2023/01/12 12:08:46;;;;;;;19.70;3.42;;;;;;;14.09;72.32;101893.25;5011554;28;20030;-59
2023/01/12 12:11:26;;;;;;;12.35;3.38;;;;;;;14.08;72.21;101894.28;5011452;28;20499;-59
2023/01/12 12:14:16;;;;;;;18.98;3.92;;;;;;;14.18;71.92;101889.34;5011389;28;20522;-59
2023/01/12 12:17:03;;;;;;;12.32;3.80;;;;;;;14.21;71.49;101888.09;5011488;28;20056;-59